createdAt,value
2022-12-31T00:00:25.065Z,9.24
2022-12-31T00:02:52.779Z,9.26
2022-12-31T00:05:20.429Z,9.34
2022-12-31T00:07:48.065Z,9.30
2022-12-31T00:10:15.766Z,9.61
2022-12-31T00:12:44.763Z,9.41
2022-12-31T00:15:12.533Z,9.62
2022-12-31T00:17:40.137Z,9.54
2022-12-31T00:20:08.875Z,9.50
2022-12-31T00:22:36.512Z,9.41
2022-12-31T00:25:04.749Z,9.57
2022-12-31T00:27:32.678Z,9.49
2022-12-31T00:30:04.632Z,9.84
2022-12-31T00:32:32.821Z,10.00
2022-12-31T00:35:00.517Z,10.19
2022-12-31T00:37:28.212Z,10.28
2022-12-31T00:39:55.847Z,10.37
2022-12-31T00:42:23.505Z,10.40
2022-12-31T00:44:51.130Z,10.63
2022-12-31T00:47:20.135Z,10.66
2022-12-31T00:49:47.774Z,10.71
2022-12-31T00:52:16.825Z,10.77
2022-12-31T00:54:44.445Z,10.58
2022-12-31T00:57:12.131Z,10.77
2022-12-31T00:59:39.779Z,10.81
2022-12-31T01:02:07.617Z,10.88
2022-12-31T01:04:37.022Z,11.01
2022-12-31T01:07:04.690Z,11.19
2022-12-31T01:09:32.321Z,11.09
2022-12-31T01:11:59.957Z,11.24
2022-12-31T01:14:27.618Z,11.05
2022-12-31T01:16:55.474Z,11.14
2022-12-31T01:19:25.077Z,11.27
2022-12-31T01:21:55.254Z,11.08
2022-12-31T01:24:23.294Z,11.23
2022-12-31T01:26:51.392Z,11.40
2022-12-31T01:29:19.305Z,11.37
2022-12-31T01:31:46.991Z,11.19
2022-12-31T01:34:14.697Z,11.49
2022-12-31T01:36:42.454Z,11.41
2022-12-31T01:39:12.505Z,11.06
2022-12-31T01:41:42.407Z,11.49
2022-12-31T01:44:59.121Z,11.63
2022-12-31T01:47:35.481Z,11.55
2022-12-31T01:50:09.291Z,11.53
2022-12-31T01:52:40.136Z,11.58
2022-12-31T01:55:15.888Z,11.68
2022-12-31T01:57:44.911Z,11.66
2022-12-31T02:00:13.250Z,11.47
2022-12-31T02:02:41.152Z,11.69
2022-12-31T02:05:17.771Z,11.75
2022-12-31T02:07:46.014Z,11.67
2022-12-31T02:10:14.971Z,11.66
2022-12-31T02:12:42.838Z,11.65
2022-12-31T02:15:11.031Z,11.61
2022-12-31T02:17:48.356Z,11.39
2022-12-31T02:21:04.872Z,11.53
2022-12-31T02:23:54.229Z,11.67
2022-12-31T02:26:41.525Z,11.75
2022-12-31T02:29:39.813Z,11.60
2022-12-31T02:32:14.915Z,11.70
2022-12-31T02:34:55.284Z,11.84
2022-12-31T02:37:25.955Z,11.77
2022-12-31T02:39:53.940Z,11.71
2022-12-31T02:42:21.562Z,11.40
2022-12-31T02:44:49.208Z,11.53
2022-12-31T02:47:29.242Z,11.53
2022-12-31T02:50:14.366Z,11.47
2022-12-31T02:52:51.606Z,11.70
2022-12-31T02:55:31.256Z,11.75
2022-12-31T02:58:09.047Z,11.90
2022-12-31T03:00:59.629Z,11.82
2022-12-31T03:03:29.387Z,11.79
2022-12-31T03:05:58.462Z,11.73
2022-12-31T03:08:27.792Z,11.83
2022-12-31T03:10:57.752Z,11.89
2022-12-31T03:13:24.480Z,12.02
2022-12-31T03:15:52.239Z,12.13
2022-12-31T03:18:40.858Z,12.02
2022-12-31T03:21:32.532Z,11.99
2022-12-31T03:24:17.572Z,11.82
2022-12-31T03:26:45.197Z,11.91
2022-12-31T03:29:12.846Z,11.87
2022-12-31T03:31:40.817Z,11.74
2022-12-31T03:34:08.535Z,11.98
2022-12-31T03:36:37.484Z,11.90
2022-12-31T03:39:05.711Z,11.83
2022-12-31T03:41:33.294Z,11.80
2022-12-31T03:44:00.889Z,12.02
2022-12-31T03:46:28.481Z,11.98
2022-12-31T03:48:56.189Z,11.94
2022-12-31T03:51:23.784Z,11.92
2022-12-31T03:53:52.737Z,11.93
2022-12-31T03:56:25.505Z,12.01
2022-12-31T03:58:59.310Z,11.96
2022-12-31T04:01:30.464Z,12.13
2022-12-31T04:04:04.882Z,12.08
2022-12-31T04:06:39.001Z,12.06
2022-12-31T04:09:12.394Z,12.04
2022-12-31T04:11:52.234Z,12.05
2022-12-31T04:14:32.748Z,12.03
2022-12-31T04:17:06.043Z,11.96
2022-12-31T04:19:38.467Z,11.95
2022-12-31T04:22:09.721Z,12.06
2022-12-31T04:24:39.048Z,12.00
2022-12-31T04:27:07.945Z,11.96
2022-12-31T04:29:35.814Z,12.06
2022-12-31T04:32:04.135Z,12.05
2022-12-31T04:34:32.454Z,11.63
2022-12-31T04:37:00.521Z,12.06
2022-12-31T04:39:28.330Z,11.94
2022-12-31T04:41:57.369Z,12.09
2022-12-31T04:44:25.110Z,12.11
2022-12-31T04:46:52.910Z,12.23
2022-12-31T04:49:20.722Z,11.88
2022-12-31T04:51:48.569Z,12.21
2022-12-31T04:54:16.235Z,12.06
2022-12-31T04:56:43.940Z,12.39
2022-12-31T04:59:12.999Z,12.27
2022-12-31T05:01:40.803Z,12.18
2022-12-31T05:04:08.559Z,11.64
2022-12-31T05:06:36.218Z,12.32
2022-12-31T05:09:03.906Z,12.29
2022-12-31T05:11:31.647Z,12.36
2022-12-31T05:13:59.299Z,12.72
2022-12-31T05:16:28.355Z,12.77
2022-12-31T05:18:56.054Z,12.76
2022-12-31T05:21:23.725Z,12.67
2022-12-31T05:23:51.392Z,12.67
2022-12-31T05:26:19.220Z,12.81
2022-12-31T05:28:46.831Z,12.77
2022-12-31T05:31:14.920Z,12.65
2022-12-31T05:33:43.976Z,12.51
2022-12-31T05:36:11.615Z,12.35
2022-12-31T05:38:39.347Z,12.24
2022-12-31T05:41:09.169Z,11.94
2022-12-31T05:43:36.857Z,12.22
2022-12-31T05:46:05.716Z,12.24
2022-12-31T05:48:33.426Z,12.24
2022-12-31T05:51:02.674Z,12.20
2022-12-31T05:53:30.341Z,11.96
2022-12-31T05:55:58.050Z,12.03
2022-12-31T05:58:26.686Z,12.00
2022-12-31T06:00:54.695Z,11.44
2022-12-31T06:03:22.478Z,12.04
2022-12-31T06:05:50.797Z,11.99
2022-12-31T06:08:19.855Z,11.86
2022-12-31T06:10:48.264Z,12.00
2022-12-31T06:13:15.904Z,11.77
2022-12-31T06:15:43.592Z,11.62
2022-12-31T06:18:11.281Z,11.53
2022-12-31T06:20:39.380Z,11.49
2022-12-31T06:23:07.414Z,11.38
2022-12-31T06:25:37.966Z,11.28
2022-12-31T06:28:06.542Z,10.74
2022-12-31T06:30:34.263Z,10.86
2022-12-31T06:33:01.958Z,11.15
2022-12-31T06:35:29.619Z,10.66
2022-12-31T06:37:57.301Z,10.95
2022-12-31T06:40:25.409Z,11.02
2022-12-31T06:42:59.866Z,10.81
2022-12-31T06:45:28.223Z,10.92
2022-12-31T06:47:55.912Z,10.89
2022-12-31T06:50:23.564Z,10.86
2022-12-31T06:52:51.254Z,10.35
2022-12-31T06:55:19.634Z,10.82
2022-12-31T06:57:47.807Z,10.94
2022-12-31T07:00:18.226Z,11.10
2022-12-31T07:03:17.567Z,11.17
2022-12-31T07:05:49.748Z,10.98
2022-12-31T07:08:38.682Z,11.17
2022-12-31T07:11:12.975Z,11.09
2022-12-31T07:13:55.290Z,11.07
2022-12-31T07:16:36.635Z,10.88
2022-12-31T07:19:16.555Z,11.09
2022-12-31T07:21:46.018Z,10.96
2022-12-31T07:24:14.836Z,11.16
2022-12-31T07:26:57.249Z,10.54
2022-12-31T07:29:32.473Z,11.11
2022-12-31T07:32:11.917Z,11.09
2022-12-31T07:34:47.787Z,11.08
2022-12-31T07:37:25.485Z,10.10
2022-12-31T07:40:01.846Z,11.00
2022-12-31T07:42:36.538Z,10.99
2022-12-31T07:45:13.323Z,10.95
2022-12-31T07:47:42.960Z,10.92
2022-12-31T07:50:15.579Z,10.91
2022-12-31T07:52:44.017Z,10.32
2022-12-31T07:55:11.867Z,10.69
2022-12-31T07:57:52.460Z,10.98
2022-12-31T08:00:20.859Z,10.84
2022-12-31T08:03:04.771Z,10.63
2022-12-31T08:05:39.762Z,10.94
2022-12-31T08:08:21.474Z,11.02
2022-12-31T08:10:59.249Z,10.98
2022-12-31T08:13:32.491Z,10.43
2022-12-31T08:16:00.781Z,11.22
2022-12-31T08:18:30.472Z,11.28
2022-12-31T08:21:10.335Z,11.52
2022-12-31T08:23:45.122Z,11.57
2022-12-31T08:26:24.517Z,11.56
2022-12-31T08:29:02.504Z,11.56
2022-12-31T08:31:37.866Z,11.63
2022-12-31T08:34:13.100Z,10.56
2022-12-31T08:36:51.442Z,11.56
2022-12-31T08:39:31.719Z,11.63
2022-12-31T08:42:01.219Z,11.63
2022-12-31T08:44:37.482Z,11.61
2022-12-31T08:47:17.730Z,11.64
2022-12-31T08:49:47.677Z,11.46
2022-12-31T08:52:19.982Z,12.35
2022-12-31T08:54:48.177Z,12.30
2022-12-31T08:57:27.908Z,12.57
2022-12-31T09:00:05.506Z,12.50
2022-12-31T09:03:08.537Z,12.53
2022-12-31T09:05:46.866Z,12.50
2022-12-31T09:08:22.189Z,12.38
2022-12-31T09:10:59.431Z,12.75
2022-12-31T09:13:38.831Z,12.07
2022-12-31T09:16:15.108Z,12.76
2022-12-31T09:18:44.527Z,12.77
2022-12-31T09:21:16.285Z,12.64
2022-12-31T09:23:44.623Z,12.43
2022-12-31T09:26:28.516Z,12.21
2022-12-31T09:29:05.278Z,12.19
2022-12-31T09:31:40.359Z,12.57
2022-12-31T09:34:13.673Z,12.54
2022-12-31T09:36:47.531Z,11.96
2022-12-31T09:39:23.554Z,12.57
2022-12-31T09:42:17.539Z,12.26
2022-12-31T09:45:24.905Z,12.83
2022-12-31T09:48:37.145Z,13.01
2022-12-31T09:51:25.306Z,12.43
2022-12-31T09:54:17.756Z,12.76
2022-12-31T09:56:55.572Z,13.53
2022-12-31T09:59:34.536Z,13.85
2022-12-31T10:02:20.641Z,13.75
2022-12-31T10:04:58.427Z,13.85
2022-12-31T10:07:36.273Z,13.78
2022-12-31T10:10:17.426Z,14.14
2022-12-31T10:13:12.712Z,13.91
2022-12-31T10:16:04.285Z,14.32
2022-12-31T10:18:52.522Z,13.63
2022-12-31T10:21:38.194Z,14.59
2022-12-31T10:24:30.356Z,13.93
2022-12-31T10:27:12.873Z,14.58
2022-12-31T10:29:47.494Z,14.05
2022-12-31T10:32:19.071Z,14.42
2022-12-31T10:35:01.839Z,14.34
2022-12-31T10:37:35.146Z,14.23
2022-12-31T10:40:25.844Z,14.03
2022-12-31T10:43:24.150Z,14.22
2022-12-31T10:46:36.409Z,13.88
2022-12-31T10:49:48.537Z,14.12
2022-12-31T10:52:51.202Z,14.04
2022-12-31T10:55:46.239Z,13.95
2022-12-31T10:58:57.384Z,13.60
2022-12-31T11:01:33.781Z,13.89
2022-12-31T11:04:38.056Z,13.85
2022-12-31T11:07:41.877Z,13.80
2022-12-31T11:10:53.888Z,13.78
2022-12-31T11:13:55.100Z,13.57
2022-12-31T11:16:55.571Z,13.66
2022-12-31T11:19:35.107Z,13.52
2022-12-31T11:22:20.843Z,13.53
2022-12-31T11:25:07.204Z,13.44
2022-12-31T11:27:51.849Z,13.33
2022-12-31T11:30:25.438Z,13.50
2022-12-31T11:33:05.819Z,13.51
2022-12-31T11:35:50.501Z,13.53
2022-12-31T11:38:24.321Z,13.53
2022-12-31T11:41:01.130Z,13.62
2022-12-31T11:43:35.596Z,13.66
2022-12-31T11:46:17.899Z,13.69
2022-12-31T11:48:59.015Z,13.74
2022-12-31T11:51:50.194Z,13.81
2022-12-31T11:55:13.625Z,13.93
2022-12-31T11:57:46.072Z,14.01
2022-12-31T12:00:18.927Z,13.62
2022-12-31T12:02:50.104Z,14.07
2022-12-31T12:05:20.184Z,14.29
2022-12-31T12:07:48.419Z,14.34
2022-12-31T12:10:23.983Z,14.39
2022-12-31T12:12:52.576Z,14.46
2022-12-31T12:15:23.839Z,14.54
2022-12-31T12:17:55.254Z,14.61
2022-12-31T12:20:30.439Z,14.67
2022-12-31T12:23:00.936Z,14.75
2022-12-31T12:25:38.399Z,14.86
2022-12-31T12:28:20.157Z,14.95
2022-12-31T12:30:54.582Z,14.97
2022-12-31T12:33:23.635Z,14.96
2022-12-31T12:35:51.307Z,14.51
2022-12-31T12:38:21.863Z,14.79
2022-12-31T12:40:58.328Z,14.73
2022-12-31T12:43:27.978Z,14.71
2022-12-31T12:45:59.832Z,14.69
2022-12-31T12:48:35.819Z,14.69
2022-12-31T12:51:23.069Z,14.82
2022-12-31T12:54:00.634Z,14.77
2022-12-31T12:56:38.177Z,14.63
2022-12-31T12:59:35.861Z,14.86
2022-12-31T13:02:23.561Z,14.86
2022-12-31T13:05:04.499Z,14.86
2022-12-31T13:07:47.246Z,14.76
2022-12-31T13:10:25.770Z,14.73
2022-12-31T13:13:23.483Z,14.67
2022-12-31T13:15:59.147Z,14.61
2022-12-31T13:18:38.774Z,14.58
2022-12-31T13:21:25.228Z,14.54
2022-12-31T13:23:57.850Z,14.50
2022-12-31T13:26:32.525Z,14.13
2022-12-31T13:29:02.748Z,14.54
2022-12-31T13:31:34.791Z,14.35
2022-12-31T13:34:07.351Z,14.33
2022-12-31T13:36:41.413Z,14.45
2022-12-31T13:39:16.377Z,14.30
2022-12-31T13:41:50.155Z,14.25
2022-12-31T13:44:29.638Z,14.11
2022-12-31T13:47:03.614Z,14.20
2022-12-31T13:49:34.518Z,14.15
2022-12-31T13:52:15.598Z,14.00
2022-12-31T13:54:52.994Z,13.99
2022-12-31T13:57:29.980Z,13.97
2022-12-31T14:00:01.523Z,13.90
2022-12-31T14:02:46.259Z,13.81
2022-12-31T14:05:19.740Z,13.68
2022-12-31T14:07:53.583Z,13.69
2022-12-31T14:10:29.269Z,13.67
2022-12-31T14:13:08.475Z,13.59
2022-12-31T14:15:42.332Z,13.54
2022-12-31T14:18:19.863Z,13.55
2022-12-31T14:20:49.939Z,13.44
2022-12-31T14:23:27.788Z,13.27
2022-12-31T14:26:00.453Z,13.29
2022-12-31T14:28:34.531Z,13.22
2022-12-31T14:31:14.608Z,12.48
2022-12-31T14:33:55.162Z,12.94
2022-12-31T14:36:39.956Z,12.85
2022-12-31T14:39:30.412Z,12.68
2022-12-31T14:42:11.408Z,12.52
2022-12-31T14:44:52.643Z,12.67
2022-12-31T14:47:31.711Z,12.52
2022-12-31T14:50:07.268Z,12.48
2022-12-31T14:52:47.998Z,12.22
2022-12-31T14:55:28.991Z,12.25
2022-12-31T15:00:55.953Z,12.16
2022-12-31T15:03:26.542Z,12.07
2022-12-31T15:05:59.109Z,12.03
2022-12-31T15:08:47.824Z,11.85
2022-12-31T15:11:36.732Z,11.82
2022-12-31T15:14:25.148Z,11.74
2022-12-31T15:17:03.461Z,11.64
2022-12-31T15:20:00.977Z,11.53
2022-12-31T15:22:40.779Z,11.48
2022-12-31T15:25:41.677Z,11.31
2022-12-31T15:28:31.523Z,11.09
2022-12-31T15:31:04.520Z,10.99
2022-12-31T15:33:35.244Z,10.99
2022-12-31T15:36:14.558Z,10.91
2022-12-31T15:38:43.429Z,10.88
2022-12-31T15:41:26.708Z,10.81
2022-12-31T15:44:01.916Z,10.71
2022-12-31T15:46:33.771Z,10.70
2022-12-31T15:49:06.944Z,10.50
2022-12-31T15:51:45.768Z,10.49
2022-12-31T15:54:24.143Z,10.34
2022-12-31T15:56:53.793Z,10.30
2022-12-31T15:59:23.768Z,10.28
2022-12-31T16:01:51.685Z,10.12
2022-12-31T16:04:21.840Z,10.13
2022-12-31T16:06:51.226Z,10.03
2022-12-31T16:09:25.626Z,9.98
2022-12-31T16:11:54.694Z,9.91
2022-12-31T16:14:27.034Z,9.88
2022-12-31T16:16:57.367Z,9.83
2022-12-31T16:19:34.549Z,9.81
2022-12-31T16:22:08.737Z,9.49
2022-12-31T16:24:48.957Z,9.69
2022-12-31T16:27:26.477Z,9.76
2022-12-31T16:30:01.950Z,9.69
2022-12-31T16:32:36.153Z,9.54
2022-12-31T16:35:10.086Z,9.61
2022-12-31T16:37:42.725Z,9.21
2022-12-31T16:40:21.075Z,9.47
2022-12-31T16:42:49.011Z,8.99
2022-12-31T16:45:36.671Z,9.47
2022-12-31T16:48:16.392Z,9.40
2022-12-31T16:50:46.009Z,9.42
2022-12-31T16:53:17.509Z,9.12
2022-12-31T16:55:51.192Z,9.08
2022-12-31T16:58:23.147Z,9.28
2022-12-31T17:00:53.545Z,9.18
2022-12-31T17:03:24.410Z,9.18
2022-12-31T17:05:59.807Z,8.74
2022-12-31T17:08:29.306Z,9.18
2022-12-31T17:10:57.417Z,9.16
2022-12-31T17:13:30.654Z,9.11
2022-12-31T17:16:01.516Z,8.74
2022-12-31T17:18:35.752Z,9.09
2022-12-31T17:21:08.843Z,9.03
2022-12-31T17:23:39.614Z,9.03
2022-12-31T17:26:11.377Z,9.26
2022-12-31T17:28:44.625Z,9.39
2022-12-31T17:31:36.851Z,9.33
2022-12-31T17:34:21.898Z,9.35
2022-12-31T17:36:59.148Z,9.41
2022-12-31T17:39:28.735Z,9.38
2022-12-31T17:41:58.511Z,9.06
2022-12-31T17:44:28.978Z,9.21
2022-12-31T17:46:58.748Z,9.27
2022-12-31T17:49:31.110Z,8.75
2022-12-31T17:51:58.845Z,9.14
2022-12-31T17:54:26.515Z,9.18
2022-12-31T17:56:54.847Z,9.09
2022-12-31T17:59:29.516Z,9.04
2022-12-31T18:02:00.836Z,8.83
2022-12-31T18:04:28.884Z,9.06
2022-12-31T18:06:56.532Z,9.33
2022-12-31T18:09:24.147Z,9.48
2022-12-31T18:11:55.453Z,9.31
2022-12-31T18:14:24.496Z,9.50
2022-12-31T18:16:52.128Z,9.19
2022-12-31T18:19:54.194Z,8.67
2022-12-31T18:22:14.054Z,9.13
2022-12-31T18:24:41.727Z,8.77
2022-12-31T18:27:20.581Z,8.79
2022-12-31T18:29:48.563Z,8.85
2022-12-31T18:32:21.370Z,8.29
2022-12-31T18:34:51.087Z,8.82
2022-12-31T18:37:22.783Z,8.34
2022-12-31T18:39:51.033Z,8.37
2022-12-31T18:42:20.088Z,8.67
2022-12-31T18:44:48.026Z,8.67
2022-12-31T18:47:18.825Z,8.59
2022-12-31T18:49:48.480Z,8.12
2022-12-31T18:52:19.935Z,8.53
2022-12-31T18:54:47.917Z,8.51
2022-12-31T18:57:16.586Z,8.45
2022-12-31T18:59:44.244Z,8.43
2022-12-31T19:02:16.221Z,7.90
2022-12-31T19:04:44.071Z,8.39
2022-12-31T19:07:11.827Z,7.59
2022-12-31T19:09:45.524Z,8.38
2022-12-31T19:12:15.859Z,8.45
2022-12-31T19:14:43.578Z,8.48
2022-12-31T19:17:11.199Z,8.24
2022-12-31T19:19:39.919Z,8.35
2022-12-31T19:22:07.525Z,8.68
2022-12-31T19:24:35.107Z,8.67
2022-12-31T19:27:04.124Z,8.65
2022-12-31T19:29:31.759Z,8.62
2022-12-31T19:32:02.029Z,8.46
2022-12-31T19:34:29.673Z,8.42
2022-12-31T19:36:57.460Z,8.56
2022-12-31T19:39:25.070Z,8.62
2022-12-31T19:41:58.828Z,8.74
2022-12-31T19:44:28.776Z,8.91
2022-12-31T19:46:56.433Z,9.00
2022-12-31T19:49:25.112Z,8.96
2022-12-31T19:51:52.766Z,8.79
2022-12-31T19:54:20.430Z,8.80
2022-12-31T19:56:48.073Z,8.80
2022-12-31T19:59:15.655Z,8.66
2022-12-31T20:01:44.741Z,8.16
2022-12-31T20:04:12.450Z,8.56
2022-12-31T20:06:40.095Z,8.17
2022-12-31T20:09:07.923Z,8.39
2022-12-31T20:11:35.573Z,8.28
2022-12-31T20:14:03.399Z,8.26
2022-12-31T20:16:32.183Z,8.12
2022-12-31T20:19:01.197Z,7.68
2022-12-31T20:21:29.848Z,7.89
2022-12-31T20:23:57.512Z,7.96
2022-12-31T20:26:25.757Z,8.09
2022-12-31T20:28:54.124Z,7.88
2022-12-31T20:31:23.997Z,8.40
2022-12-31T20:33:53.603Z,8.09
2022-12-31T20:36:23.925Z,8.65
2022-12-31T20:38:51.627Z,8.17
2022-12-31T20:41:21.295Z,8.48
2022-12-31T20:43:49.592Z,8.68
2022-12-31T20:46:19.875Z,8.80
2022-12-31T20:48:48.865Z,8.71
2022-12-31T20:51:18.327Z,8.57
2022-12-31T20:53:50.826Z,8.51
2022-12-31T20:56:19.108Z,8.43
2022-12-31T20:58:46.760Z,8.56
2022-12-31T21:01:15.651Z,8.55
2022-12-31T21:06:33.668Z,8.54
2022-12-31T21:09:04.903Z,8.36
2022-12-31T21:11:46.541Z,8.40
2022-12-31T21:14:14.809Z,8.58
2022-12-31T21:16:42.509Z,8.71
2022-12-31T21:19:10.485Z,8.90
2022-12-31T21:21:38.311Z,8.94
2022-12-31T21:24:08.027Z,8.95
2022-12-31T21:26:36.218Z,8.95
2022-12-31T21:29:04.158Z,8.99
2022-12-31T21:31:31.825Z,9.02
2022-12-31T21:33:59.499Z,8.93
2022-12-31T21:36:27.132Z,8.82
2022-12-31T21:38:54.734Z,8.61
2022-12-31T21:41:41.253Z,8.69
2022-12-31T21:44:08.865Z,8.71
2022-12-31T21:46:36.579Z,8.65
2022-12-31T21:49:04.381Z,8.52
2022-12-31T21:51:32.071Z,8.94
2022-12-31T21:53:59.738Z,8.99
2022-12-31T21:56:27.707Z,9.03
2022-12-31T21:59:14.652Z,9.05
2022-12-31T22:02:01.039Z,9.12
2022-12-31T22:05:01.025Z,8.95
2022-12-31T22:07:16.720Z,9.24
2022-12-31T22:09:44.369Z,8.91
2022-12-31T22:12:13.323Z,9.31
2022-12-31T22:15:14.846Z,9.24
2022-12-31T22:17:28.670Z,9.10
2022-12-31T22:22:43.876Z,9.00
2022-12-31T22:25:11.534Z,8.81
2022-12-31T22:27:40.530Z,8.81
2022-12-31T22:30:09.617Z,8.62
2022-12-31T22:32:37.229Z,7.92
2022-12-31T22:35:05.574Z,8.40
2022-12-31T22:37:56.362Z,8.22
2022-12-31T22:40:21.515Z,8.13
2022-12-31T22:42:50.577Z,8.08
2022-12-31T22:45:18.249Z,7.97
2022-12-31T22:47:45.983Z,8.14
2022-12-31T22:50:13.670Z,7.99
2022-12-31T22:52:41.435Z,8.12
2022-12-31T22:55:10.035Z,7.90
2022-12-31T22:57:37.842Z,7.92
2022-12-31T23:00:12.303Z,7.99
2022-12-31T23:02:41.998Z,8.04
2022-12-31T23:05:15.160Z,7.94
2022-12-31T23:07:44.113Z,7.34
2022-12-31T23:10:29.732Z,7.98
2022-12-31T23:12:57.328Z,7.85
2022-12-31T23:15:44.096Z,8.23
2022-12-31T23:18:29.211Z,8.20
2022-12-31T23:21:14.229Z,8.12
2022-12-31T23:23:41.832Z,8.12
2022-12-31T23:26:09.465Z,8.21
2022-12-31T23:28:37.148Z,7.70
2022-12-31T23:31:08.203Z,8.01
2022-12-31T23:33:35.946Z,7.66
2022-12-31T23:36:04.815Z,7.40
2022-12-31T23:38:32.466Z,8.10
2022-12-31T23:41:00.256Z,8.06
2022-12-31T23:43:27.973Z,8.21
2022-12-31T23:45:55.663Z,8.16
2022-12-31T23:48:24.680Z,7.34
2022-12-31T23:50:54.274Z,7.53
2022-12-31T23:53:22.669Z,8.04
2022-12-31T23:55:50.432Z,7.38
2022-12-31T23:58:18.205Z,8.09
